Flight Track Log - Related Links

Times and Time Zones

All times are in EDT time to prevent confusion due to time zone crossing. See the UAL4180 flight status page for this flight to view local times or setup timezone preferences in your user account.

Time Position Orientation Groundspeed Altitude Reporting Facility
EDT Latitude Longitude Course Direction KTS MPH feet Rate Location/Type
Fri 06:47:30 AM 30.1753 -97.6583 97° East 158 182 1,100  Level Houston Center
Fri 06:48:12 AM 30.1497 -97.6567 177° South 151 174 2,600 1,689 Climbing Houston Center
Fri 06:49:13 AM 30.1364 -97.6028 106° East 236 272 4,000 1,623 Climbing Houston Center
Fri 06:50:00 AM 30.1729 -97.4071 90° East  Level Estimated
Fri 06:50:14 AM 30.1575 -97.5214 73° East 254 292 5,900  Level Houston Center
Fri 06:51:00 AM 30.3610 -97.4260 97° East  Level FlightAware
Fri 06:51:14 AM 30.1797 -97.4392 73° East 263 303 8,000  Level Houston Center
Fri 06:52:00 AM 30.3522 -97.3384 97° East  Level FlightAware
Fri 06:52:15 AM 30.2206 -97.3611 59° Northeast 287 330 10,300  Level Houston Center
Fri 06:53:15 AM 30.2603 -97.2786 61° Northeast 292 336 11,500 1,140 Climbing Houston Center
Fri 06:54:16 AM 30.3019 -97.1872 62° Northeast 317 365 12,600 1,339 Climbing Houston Center
Fri 06:55:16 AM 30.3228 -97.0842 77° East 338 389 14,200 1,140 Climbing Houston Center
Fri 06:56:17 AM 30.3286 -96.9739 86° East 342 394 14,900 347 Climbing Houston Center
Fri 06:57:17 AM 30.3325 -96.8275 88° East 372 428 14,900  Level Houston Center
Fri 06:58:18 AM 30.3386 -96.7047 87° East 382 440 14,900  Level Houston Center
Fri 06:59:18 AM 30.3428 -96.5872 88° East 372 428 14,900 50 Level Houston Center
Fri 07:00:18 AM 30.3469 -96.4664 88° East 373 429 15,000 143 Climbing Houston Center
Fri 07:00:42 AM 30.3489 -96.4122 88° East 392 451 15,100  Climbing Houston Center
Fri 07:01:07 AM 30.3511 -96.3636 87° East 391 450 15,000 -324 Descending Houston Center
Fri 07:01:19 AM 30.3506 -96.3425 92° East 385 443 14,900  Descending Houston Center
Fri 07:02:07 AM 30.3461 -96.2553 93° East 317 365 15,000  Climbing Houston Center
Fri 07:02:19 AM 30.3417 -96.2386 107° East 332 382 14,900 -1,180 Descending Houston Center
Fri 07:03:08 AM 30.2922 -96.1622 127° Southeast 385 443 13,800 -1,180 Descending Houston Center
Fri 07:03:20 AM 30.2817 -96.1447 125° Southeast 362 417 13,700 -1,254 Descending Houston Center
Fri 07:04:15 AM 30.2194 -96.0472 126° Southeast 378 435 12,400 -1,448 Descending Houston Center
Fri 07:05:16 AM 30.1656 -95.9592 125° Southeast 313 360 10,900 -1,448 Descending Houston Center
Fri 07:06:11 AM 30.1256 -95.8839 122° Southeast 291 335 9,600 -1,182 Descending Houston Center
Fri 07:06:22 AM 30.1264 -95.8839 360° North 301 346 9,600 -1,818 Level Houston Center
Fri 07:07:17 AM 30.0822 -95.7972 120° Southeast 278 320 7,600 -1,967 Descending Houston Center
Fri 07:08:24 AM 30.0433 -95.7125 118° Southeast 269 310 5,600 -1,721 Descending Houston Center
Fri 07:09:19 AM 30.0100 -95.6464 120° Southeast 259 298 4,100 -900 Descending Houston Center
Fri 07:10:24 AM 29.9936 -95.5669 103° East 251 289 3,800 -857 Descending Houston Center
Fri 07:11:25 AM 29.9925 -95.4917 91° East 243 280 2,300 -1,180 Descending Houston Center
Fri 07:12:26 AM 29.9922 -95.4294 90° East 217 250 1,400 -793 Descending Houston Center
Fri 07:13:26 AM 29.9933 -95.3861 88° East 163 188 700 -496 Descending Houston Center
Fri 07:14:27 AM 29.9933 -95.3428 90° East 152 175 400 -295 Descending Houston Center

Login

Don't have an account? Register now (free) for customized features, flight alerts, and more!